Time;durP1;ratioP1;P1;durP2;ratioP2;P2;SDS_P1;SDS_P2;PMS_P1;PMS_P2;Temp;Humidity;BMP_temperature;BMP_pressure;BME280_temperature;BME280_humidity;BME280_pressure;Samples;Min_cycle;Max_cycle;Signal;HPM_P1;HPM_P2
2022/01/17 00:01:12;;;;;;;;;;;;;;;4.50;100.00;101117.88;5013192;28;1302;-76
2022/01/17 00:03:39;;;;;;;;;;;;;;;4.47;100.00;101115.31;5012968;28;1918;-76
2022/01/17 00:06:05;;;;;;;;;;;;;;;4.50;100.00;101111.59;4995189;28;764;-76
2022/01/17 00:08:33;;;;;;;;;;;;;;;4.54;100.00;101097.06;4995616;28;1005;-77
2022/01/17 00:10:59;;;;;;;;;;;;;;;4.57;100.00;101093.34;5013255;28;1420;-77
2022/01/17 00:13:27;;;;;;;;;;;;;;;4.58;100.00;101103.16;5013814;28;1034;-76
2022/01/17 00:15:57;;;;;;;;;;;;;;;4.59;100.00;101100.41;5014442;28;1053;-77
2022/01/17 00:18:52;;;;;;;;;;;;;;;4.61;100.00;101103.00;4997318;28;832;-77
2022/01/17 00:21:17;;;;;;;;;;;;;;;4.60;100.00;101094.06;5014126;28;1361;-77
2022/01/17 00:23:44;;;;;;;;;;;;;;;4.58;100.00;101079.81;5014574;28;1899;-76
2022/01/17 00:26:10;;;;;;;;;;;;;;;4.62;100.00;101080.53;5014208;28;952;-77
2022/01/17 00:28:36;;;;;;;;;;;;;;;4.64;100.00;101089.41;4996541;28;784;-78
2022/01/17 00:31:05;;;;;;;;;;;;;;;4.63;100.00;101096.59;5014470;28;1397;-77
2022/01/17 00:33:32;;;;;;;;;;;;;;;4.65;100.00;101101.91;5014475;28;991;-76
2022/01/17 00:35:59;;;;;;;;;;;;;;;4.64;100.00;101103.72;5014168;28;978;-77
2022/01/17 00:38:25;;;;;;;;;;;;;;;4.64;100.00;101098.34;5014381;28;825;-77
2022/01/17 00:40:51;;;;;;;;;;;;;;;4.67;100.00;101095.50;4996219;28;1333;-76
2022/01/17 00:43:18;;;;;;;;;;;;;;;4.69;100.00;101092.75;5014088;28;1977;-77
2022/01/17 00:45:45;;;;;;;;;;;;;;;4.71;100.00;101076.53;5014234;28;935;-77
2022/01/17 00:48:11;;;;;;;;;;;;;;;4.72;100.00;101057.63;5014451;28;816;-78
2022/01/17 00:50:40;;;;;;;;;;;;;;;4.74;100.00;101065.59;4997751;28;1409;-77
2022/01/17 00:53:07;;;;;;;;;;;;;;;4.76;100.00;101067.28;5002879;28;1161;-77
2022/01/17 00:55:34;;;;;;;;;;;;;;;4.75;100.00;101068.22;5014064;28;793;-77
2022/01/17 00:58:00;;;;;;;;;;;;;;;4.74;100.00;101058.41;4997128;28;823;-77
2022/01/17 01:00:27;;;;;;;;;;;;;;;4.74;100.00;101044.94;5013762;28;1330;-77
2022/01/17 01:02:54;;;;;;;;;;;;;;;4.77;100.00;101054.69;5013817;28;1977;-77
2022/01/17 01:05:20;;;;;;;;;;;;;;;4.77;100.00;101049.31;4995358;28;1263;-77
2022/01/17 01:07:48;;;;;;;;;;;;;;;4.78;100.00;101056.44;5014593;28;904;-78
2022/01/17 01:10:14;;;;;;;;;;;;;;;4.76;100.00;101048.44;5013271;28;1301;-76
2022/01/17 01:12:41;;;;;;;;;;;;;;;4.80;100.00;101065.31;5012557;28;1500;-78
2022/01/17 01:15:12;;;;;;;;;;;;;;;4.80;100.00;101054.53;5012895;28;800;-78
2022/01/17 01:17:49;;;;;;;;;;;;;;;4.78;100.00;101057.28;5013517;28;836;-76
2022/01/17 01:20:25;;;;;;;;;;;;;;;4.78;100.00;101061.81;5014320;28;1377;-77
2022/01/17 01:28:21;;;;;;;;;;;;;;;4.83;100.00;101043.63;4997386;28;808;-77
2022/01/17 01:30:51;;;;;;;;;;;;;;;4.85;100.00;101041.69;4998129;28;1411;-77
2022/01/17 01:33:24;;;;;;;;;;;;;;;4.81;100.00;101046.41;5013799;28;860;-78
2022/01/17 01:36:00;;;;;;;;;;;;;;;4.76;100.00;101053.81;4995562;28;1406;-77
2022/01/17 01:38:28;;;;;;;;;;;;;;;4.76;100.00;101059.19;5012684;28;912;-76
2022/01/17 01:40:55;;;;;;;;;;;;;;;4.74;100.00;101066.47;5012572;28;1312;-78
2022/01/17 01:43:21;;;;;;;;;;;;;;;4.73;100.00;101061.16;5013951;28;1983;-77
2022/01/17 01:45:48;;;;;;;;;;;;;;;4.65;100.00;101072.31;5013891;28;982;-78
2022/01/17 01:48:15;;;;;;;;;;;;;;;4.61;100.00;101070.72;4995278;28;987;-77
2022/01/17 01:50:41;;;;;;;;;;;;;;;4.61;100.00;101068.03;4994360;28;1345;-77
2022/01/17 01:53:07;;;;;;;;;;;;;;;4.59;100.00;101061.88;5012402;28;880;-78
2022/01/17 01:55:35;;;;;;;;;;;;;;;4.61;100.00;101059.97;5014086;28;714;-77
2022/01/17 01:58:01;;;;;;;;;;;;;;;4.58;100.00;101065.53;5012117;28;1065;-77
2022/01/17 02:00:27;;;;;;;;;;;;;;;4.60;100.00;101056.44;4994902;28;1371;-76
2022/01/17 02:02:54;;;;;;;;;;;;;;;4.60;100.00;101042.97;5012393;28;1973;-76
2022/01/17 02:05:20;;;;;;;;;;;;;;;4.63;100.00;101045.50;5013761;28;788;-78
2022/01/17 02:07:46;;;;;;;;;;;;;;;4.60;100.00;101047.50;4998181;28;993;-78
2022/01/17 02:10:13;;;;;;;;;;;;;;;4.61;100.00;101011.56;5015210;28;1387;-79
2022/01/17 02:12:41;;;;;;;;;;;;;;;4.59;100.00;101017.03;4997697;28;1330;-79
2022/01/17 02:15:11;;;;;;;;;;;;;;;4.60;100.00;100996.41;4997162;28;1339;-80
2022/01/17 02:17:44;;;;;;;;;;;;;;;4.62;100.00;100997.19;4997812;28;880;-78
2022/01/17 02:20:16;;;;;;;;;;;;;;;4.61;100.00;100982.00;4997849;28;1423;-78
2022/01/17 02:22:42;;;;;;;;;;;;;;;4.57;100.00;100956.22;5015962;28;1946;-78
2022/01/17 02:25:09;;;;;;;;;;;;;;;4.55;100.00;100956.31;5018090;28;1118;-78
2022/01/17 02:27:35;;;;;;;;;;;;;;;4.50;100.00;100953.88;5022172;28;978;-77
2022/01/17 02:30:02;;;;;;;;;;;;;;;4.50;100.00;100956.56;5025526;28;1289;-78
2022/01/17 02:32:28;;;;;;;;;;;;;;;4.58;100.00;100952.59;5032667;28;1121;-78
2022/01/17 02:35:09;;;;;;;;;;;;;;;4.56;100.00;100922.22;5022735;28;1160;-78
2022/01/17 02:37:37;;;;;;;;;;;;;;;4.51;100.00;100931.38;5014758;28;1182;-77
2022/01/17 02:40:03;;;;;;;;;;;;;;;4.53;100.00;100921.44;4993275;28;1381;-77
2022/01/17 02:42:30;;;;;;;;;;;;;;;4.56;100.00;100911.44;5011453;28;971;-76
2022/01/17 02:45:05;;;;;;;;;;;;;;;4.58;100.00;100918.50;5014069;28;1989;-76
2022/01/17 02:47:31;;;;;;;;;;;;;;;4.57;100.00;100924.84;4996817;28;869;-77
2022/01/17 02:49:57;;;;;;;;;;;;;;;4.58;100.00;100912.25;5014015;28;1310;-77
2022/01/17 02:52:24;;;;;;;;;;;;;;;4.61;100.00;100896.84;5014358;28;955;-75
2022/01/17 02:54:51;;;;;;;;;;;;;;;4.60;100.00;100915.75;5014355;28;1045;-76
2022/01/17 02:57:18;;;;;;;;;;;;;;;4.62;100.00;100903.97;5015111;28;903;-76
2022/01/17 02:59:44;;;;;;;;;;;;;;;4.63;100.00;100888.69;5017933;28;1275;-77
2022/01/17 03:02:10;;;;;;;;;;;;;;;4.59;100.00;100879.03;5018468;28;1109;-78
2022/01/17 03:04:37;;;;;;;;;;;;;;;4.58;100.00;100888.06;5020193;28;1891;-78
2022/01/17 03:07:03;;;;;;;;;;;;;;;4.56;100.00;100877.38;5020776;28;980;-78
2022/01/17 03:09:37;;;;;;;;;;;;;;;4.59;100.00;100884.44;5018134;28;1321;-79
2022/01/17 03:12:06;;;;;;;;;;;;;;;4.57;100.00;100897.97;5000628;28;1600;-77
2022/01/17 03:14:33;;;;;;;;;;;;;;;4.54;100.00;100900.78;4999444;28;1576;-78
2022/01/17 03:16:59;;;;;;;;;;;;;;;4.58;100.00;100875.47;5012143;28;986;-75
2022/01/17 03:19:25;;;;;;;;;;;;;;;4.60;100.00;100892.41;4998606;28;1413;-77
2022/01/17 03:21:52;;;;;;;;;;;;;;;4.62;100.00;100890.53;4999180;28;1057;-77
2022/01/17 03:24:18;;;;;;;;;;;;;;;4.59;100.00;100905.94;4980008;28;1986;-78
2022/01/17 03:26:44;;;;;;;;;;;;;;;4.58;100.00;100898.81;4998097;28;983;-77
2022/01/17 03:29:12;;;;;;;;;;;;;;;4.62;100.00;100908.44;4979058;28;895;-77
2022/01/17 03:31:38;;;;;;;;;;;;;;;4.60;100.00;100887.03;4995517;28;1387;-77
2022/01/17 03:34:04;;;;;;;;;;;;;;;4.56;100.00;100858.56;4995852;28;1125;-77
2022/01/17 03:36:31;;;;;;;;;;;;;;;4.60;100.00;100875.41;4995565;28;896;-75
2022/01/17 03:38:57;;;;;;;;;;;;;;;4.60;100.00;100878.09;4995774;28;967;-77
2022/01/17 03:41:24;;;;;;;;;;;;;;;4.60;100.00;100872.72;4995547;28;1347;-77
2022/01/17 03:43:50;;;;;;;;;;;;;;;4.58;100.00;100853.97;4995213;28;1906;-77
2022/01/17 03:46:18;;;;;;;;;;;;;;;4.59;100.00;100870.97;4996483;28;825;-77
2022/01/17 03:48:44;;;;;;;;;;;;;;;4.59;100.00;100844.94;4996302;28;990;-77
2022/01/17 03:51:10;;;;;;;;;;;;;;;4.62;100.00;100884.25;4978697;28;1448;-78
2022/01/17 03:53:37;;;;;;;;;;;;;;;4.61;100.00;100879.81;4995585;28;1003;-77
2022/01/17 03:56:03;;;;;;;;;;;;;;;4.59;100.00;100884.44;4978677;28;1055;-77
2022/01/17 03:58:30;;;;;;;;;;;;;;;4.57;100.00;100889.88;4996499;28;1058;-77
2022/01/17 04:00:57;;;;;;;;;;;;;;;4.59;100.00;100908.63;4978716;28;1310;-78
2022/01/17 04:03:25;;;;;;;;;;;;;;;4.57;100.00;100887.19;4995370;28;1918;-77
2022/01/17 04:05:52;;;;;;;;;;;;;;;4.59;100.00;100916.69;4976878;28;1270;-76
2022/01/17 04:08:18;;;;;;;;;;;;;;;4.56;100.00;100892.63;5006704;28;1010;-76
2022/01/17 04:10:44;;;;;;;;;;;;;;;4.52;100.00;100890.13;5007223;28;1315;-78
2022/01/17 04:13:11;;;;;;;;;;;;;;;4.52;100.00;100875.81;4996492;28;982;-79
2022/01/17 04:15:38;;;;;;;;;;;;;;;4.50;100.00;100894.72;4996978;28;975;-77
2022/01/17 04:18:04;;;;;;;;;;;;;;;4.49;100.00;100889.41;4962554;28;1144;-77
2022/01/17 04:20:32;;;;;;;;;;;;;;;4.45;100.00;100877.97;4995265;28;1275;-79
2022/01/17 04:22:59;;;;;;;;;;;;;;;4.40;100.00;100869.28;4979899;28;1030;-77
2022/01/17 04:25:27;;;;;;;;;;;;;;;4.35;100.00;100863.28;4979554;28;1919;-77
2022/01/17 04:27:54;;;;;;;;;;;;;;;4.25;100.00;100872.75;4997492;28;1022;-78
2022/01/17 04:30:20;;;;;;;;;;;;;;;4.19;100.00;100853.31;4996546;28;1407;-78
2022/01/17 04:32:47;;;;;;;;;;;;;;;4.10;100.00;100878.00;4979155;28;1142;-78
2022/01/17 04:35:20;;;;;;;;;;;;;;;4.04;100.00;100878.31;4997348;28;1089;-77
2022/01/17 04:37:48;;;;;;;;;;;;;;;3.97;100.00;100877.75;4998025;28;821;-78
2022/01/17 04:40:14;;;;;;;;;;;;;;;3.97;100.00;100874.22;4981835;28;1293;-79
2022/01/17 04:42:44;;;;;;;;;;;;;;;3.91;100.00;100866.47;5066671;23;2107;-72
2022/01/17 04:45:16;;;;;;;;;;;;;;;3.89;100.00;100862.97;5060659;28;2315;-71
2022/01/17 04:47:44;;;;;;;;;;;;;;;3.90;100.00;100848.59;5067370;28;979;-72
2022/01/17 04:50:11;;;;;;;;;;;;;;;3.93;100.00;100852.00;5059424;28;1158;-72
2022/01/17 04:52:38;;;;;;;;;;;;;;;3.92;100.00;100836.84;5016789;28;1352;-72
2022/01/17 04:55:08;;;;;;;;;;;;;;;3.94;100.00;100836.75;5030946;28;1003;-73
2022/01/17 04:57:34;;;;;;;;;;;;;;;3.95;100.00;100838.50;5031807;28;799;-71
2022/01/17 05:00:01;;;;;;;;;;;;;;;4.01;100.00;100867.72;5013778;28;998;-72
2022/01/17 05:02:28;;;;;;;;;;;;;;;4.03;100.00;100830.91;5031157;28;1303;-72
2022/01/17 05:04:54;;;;;;;;;;;;;;;4.08;100.00;100858.41;5013183;28;1985;-72
2022/01/17 05:07:20;;;;;;;;;;;;;;;4.08;100.00;100826.16;5031299;28;914;-71
2022/01/17 05:09:47;;;;;;;;;;;;;;;4.09;100.00;100821.63;5030941;28;1001;-72
2022/01/17 05:12:15;;;;;;;;;;;;;;;4.12;100.00;100821.50;5030940;28;1318;-72
2022/01/17 05:14:45;;;;;;;;;;;;;;;4.13;100.00;100847.41;5041634;28;1449;-71
2022/01/17 05:17:24;;;;;;;;;;;;;;;4.16;100.00;100850.81;5050891;28;962;-70
2022/01/17 05:19:49;;;;;;;;;;;;;;;4.17;100.00;100844.47;5051081;28;969;-71
2022/01/17 05:22:16;;;;;;;;;;;;;;;4.18;100.00;100831.91;5050827;28;1352;-69
2022/01/17 05:24:42;;;;;;;;;;;;;;;4.14;100.00;100828.53;5032579;28;1967;-71
2022/01/17 05:27:09;;;;;;;;;;;;;;;4.14;100.00;100836.59;5050636;28;1036;-72
2022/01/17 05:29:36;;;;;;;;;;;;;;;4.18;100.00;100845.34;5051022;28;855;-70
2022/01/17 05:32:06;;;;;;;;;;;;;;;4.21;100.00;100839.81;5050963;28;1334;-70
2022/01/17 05:34:33;;;;;;;;;;;;;;;4.21;100.00;100821.00;5050540;28;907;-71
2022/01/17 05:37:00;;;;;;;;;;;;;;;4.25;100.00;100827.06;5032898;28;1068;-72
2022/01/17 05:39:26;;;;;;;;;;;;;;;4.27;100.00;100831.41;5050902;28;781;-73
2022/01/17 05:41:52;;;;;;;;;;;;;;;4.29;100.00;100831.34;5050841;28;1388;-72
2022/01/17 05:44:19;;;;;;;;;;;;;;;4.30;100.00;100825.00;5050284;28;1922;-70
2022/01/17 05:46:46;;;;;;;;;;;;;;;4.30;100.00;100836.66;5050772;28;1048;-71
2022/01/17 05:49:12;;;;;;;;;;;;;;;4.35;100.00;100828.31;5050322;28;796;-72
2022/01/17 05:51:39;;;;;;;;;;;;;;;4.38;100.00;100855.03;5032243;28;1322;-70
2022/01/17 05:54:05;;;;;;;;;;;;;;;4.41;100.00;100849.50;5032325;28;1136;-71
2022/01/17 05:56:32;;;;;;;;;;;;;;;4.39;100.00;100848.72;5044658;28;1442;-70
2022/01/17 05:58:59;;;;;;;;;;;;;;;4.35;100.00;100828.31;5021646;28;1316;-70
2022/01/17 06:01:26;;;;;;;;;;;;;;;4.27;100.00;100831.41;5030128;28;1269;-73
2022/01/17 06:03:53;;;;;;;;;;;;;;;4.22;100.00;100816.50;5013646;28;1983;-70
2022/01/17 06:06:19;;;;;;;;;;;;;;;4.19;100.00;100804.94;5042504;28;1584;-72
2022/01/17 06:08:47;;;;;;;;;;;;;;;4.17;100.00;100801.50;5050461;28;966;-69
2022/01/17 06:11:13;;;;;;;;;;;;;;;4.14;100.00;100788.22;5049966;28;1601;-69
2022/01/17 06:13:39;;;;;;;;;;;;;;;4.05;100.00;100790.50;5051341;28;844;-71
2022/01/17 06:16:06;;;;;;;;;;;;;;;4.02;100.00;100818.41;5030505;28;1530;-71
2022/01/17 06:18:32;;;;;;;;;;;;;;;3.99;100.00;100808.69;5052781;28;836;-71
2022/01/17 06:21:00;;;;;;;;;;;;;;;3.96;100.00;100826.81;5046677;28;1403;-72
2022/01/17 06:23:26;;;;;;;;;;;;;;;3.91;100.00;100848.50;5057252;28;1168;-72
2022/01/17 06:25:52;;;;;;;;;;;;;;;3.92;100.00;100846.72;5043318;28;1910;-72
2022/01/17 06:28:19;;;;;;;;;;;;;;;3.92;100.00;100857.47;5017096;28;998;-69
2022/01/17 06:30:45;;;;;;;;;;;;;;;3.88;100.00;100832.56;5036333;28;1352;-70
2022/01/17 06:33:11;;;;;;;;;;;;;;;3.87;100.00;100813.84;5036116;28;1549;-72
2022/01/17 06:35:38;;;;;;;;;;;;;;;3.87;100.00;100792.38;5033017;28;1037;-69
2022/01/17 06:38:06;;;;;;;;;;;;;;;3.83;100.00;100757.59;5033652;28;844;-69
2022/01/17 06:40:32;;;;;;;;;;;;;;;3.80;100.00;100730.91;5035510;28;1045;-70
2022/01/17 06:42:58;;;;;;;;;;;;;;;3.84;100.00;100718.19;5035206;28;1449;-70
2022/01/17 06:45:25;;;;;;;;;;;;;;;3.84;100.00;100702.09;5048346;28;1919;-70
2022/01/17 06:47:51;;;;;;;;;;;;;;;3.84;100.00;100696.72;5051653;28;935;-70
2022/01/17 06:50:17;;;;;;;;;;;;;;;3.83;100.00;100719.13;5051697;28;957;-68
2022/01/17 06:52:45;;;;;;;;;;;;;;;3.84;100.00;100710.13;5034030;28;1300;-70
2022/01/17 06:55:12;;;;;;;;;;;;;;;3.88;100.00;100737.72;5045494;28;1644;-71
2022/01/17 06:57:39;;;;;;;;;;;;;;;3.90;100.00;100785.03;5021652;28;1287;-67
2022/01/17 07:00:06;;;;;;;;;;;;;;;4.07;100.00;100784.13;5033648;28;970;-71
2022/01/17 07:02:33;;;;;;;;;;;;;;;4.63;100.00;100776.59;5034599;28;1531;-71
2022/01/17 07:04:59;;;;;;;;;;;;;;;5.80;100.00;100777.06;5042755;28;1922;-69
2022/01/17 07:07:25;;;;;;;;;;;;;;;5.23;100.00;100782.25;5034765;28;1312;-70
2022/01/17 07:09:51;;;;;;;;;;;;;;;5.83;100.00;100800.25;5033153;28;836;-70
2022/01/17 07:12:19;;;;;;;;;;;;;;;4.49;100.00;100814.13;5005437;28;1396;-71
2022/01/17 07:14:45;;;;;;;;;;;;;;;4.12;100.00;100800.84;5049262;28;1479;-72
2022/01/17 07:17:12;;;;;;;;;;;;;;;4.04;100.00;100788.81;5053080;28;962;-72
2022/01/17 07:19:39;;;;;;;;;;;;;;;4.00;100.00;100778.19;5048351;28;1349;-71
2022/01/17 07:22:05;;;;;;;;;;;;;;;4.02;100.00;100794.22;5036319;28;1530;-72
2022/01/17 07:24:33;;;;;;;;;;;;;;;4.01;100.00;100763.81;5048999;28;1914;-71
2022/01/17 07:26:59;;;;;;;;;;;;;;;4.04;100.00;100721.66;5051028;28;1233;-71
2022/01/17 07:29:27;;;;;;;;;;;;;;;4.04;100.00;100767.31;5051793;28;888;-72
2022/01/17 07:31:53;;;;;;;;;;;;;;;4.04;100.00;100749.38;5048063;28;1497;-71
2022/01/17 07:34:20;;;;;;;;;;;;;;;4.04;100.00;100752.06;5040239;28;1259;-72
2022/01/17 07:36:46;;;;;;;;;;;;;;;4.04;100.00;100727.00;5023385;28;1411;-71
2022/01/17 07:39:13;;;;;;;;;;;;;;;4.02;100.00;100727.97;5052216;28;895;-71
2022/01/17 07:41:39;;;;;;;;;;;;;;;4.08;100.00;100699.88;5052137;28;1426;-70
2022/01/17 07:44:08;;;;;;;;;;;;;;;4.09;100.00;100715.06;5034126;28;1361;-73
2022/01/17 07:46:37;;;;;;;;;;;;;;;4.10;100.00;100691.75;5039061;28;1914;-72
2022/01/17 07:49:10;;;;;;;;;;;;;;;4.12;100.00;100706.81;5042942;28;1041;-72
2022/01/17 07:51:37;;;;;;;;;;;;;;;3.98;100.00;100721.03;5052184;28;1431;-71
2022/01/17 07:54:04;;;;;;;;;;;;;;;3.98;100.00;100742.50;5033957;28;1200;-71
2022/01/17 07:56:31;;;;;;;;;;;;;;;4.00;100.00;100726.31;5039996;28;1537;-71
2022/01/17 07:58:57;;;;;;;;;;;;;;;4.02;100.00;100729.75;5033225;28;2092;-73
2022/01/17 08:01:24;;;;;;;;;;;;;;;4.04;100.00;100741.31;5019244;28;1719;-73
2022/01/17 08:03:51;;;;;;;;;;;;;;;4.10;100.00;100754.41;5018811;28;1280;-72
2022/01/17 08:06:18;;;;;;;;;;;;;;;4.09;100.00;100741.94;5026442;28;1914;-72
2022/01/17 08:08:44;;;;;;;;;;;;;;;4.11;100.00;100734.63;5043001;28;1334;-70
2022/01/17 08:11:10;;;;;;;;;;;;;;;4.12;100.00;100735.53;5040591;28;1510;-69
2022/01/17 08:13:36;;;;;;;;;;;;;;;4.16;100.00;100724.50;5047691;28;1169;-69
2022/01/17 08:16:03;;;;;;;;;;;;;;;4.15;100.00;100709.34;5051279;28;1026;-74
2022/01/17 08:18:30;;;;;;;;;;;;;;;4.19;100.00;100721.66;5032237;28;1140;-70
2022/01/17 08:20:58;;;;;;;;;;;;;;;4.19;100.00;100704.66;5025442;28;1411;-69
2022/01/17 08:23:24;;;;;;;;;;;;;;;4.18;100.00;100702.94;5051705;28;742;-72
2022/01/17 08:25:51;;;;;;;;;;;;;;;4.23;100.00;100705.38;5051178;28;1973;-69
2022/01/17 08:28:17;;;;;;;;;;;;;;;4.17;100.00;100714.66;5043947;28;1502;-72
2022/01/17 08:30:43;;;;;;;;;;;;;;;4.18;100.00;100719.94;5046044;28;1419;-72
2022/01/17 08:33:10;;;;;;;;;;;;;;;4.18;100.00;100733.38;5032413;28;1117;-74
2022/01/17 08:35:36;;;;;;;;;;;;;;;4.18;100.00;100719.94;5031630;28;887;-74
2022/01/17 08:38:04;;;;;;;;;;;;;;;4.22;100.00;100726.00;5064311;28;899;-75
2022/01/17 08:40:30;;;;;;;;;;;;;;;4.24;100.00;100725.94;5033833;28;1520;-73
2022/01/17 08:42:56;;;;;;;;;;;;;;;4.22;100.00;100722.44;5031701;28;1372;-73
2022/01/17 08:45:24;;;;;;;;;;;;;;;4.23;100.00;100727.72;5034455;28;1922;-74
2022/01/17 08:47:52;;;;;;;;;;;;;;;4.30;100.00;100750.66;5051381;28;907;-74
2022/01/17 08:50:18;;;;;;;;;;;;;;;4.32;100.00;100756.78;5051539;28;804;-72
2022/01/17 08:52:45;;;;;;;;;;;;;;;4.46;100.00;100803.56;5032885;28;1653;-73
2022/01/17 08:55:13;;;;;;;;;;;;;;;10.70;100.00;100731.81;5032711;28;1569;-73
2022/01/17 08:57:39;;;;;;;;;;;;;;;23.29;100.00;100718.91;5050047;28;1526;-73
2022/01/17 09:00:07;;;;;;;;;;;;;;;32.91;100.00;100636.25;5051378;28;1006;-75
2022/01/17 09:02:34;;;;;;;;;;;;;;;-149.19;100.00;62501.34;5051354;28;1389;-74
2022/01/17 09:05:00;;;;;;;;;;;;;;;-149.19;100.00;62501.34;5046292;28;1922;-73
2022/01/17 09:07:26;;;;;;;;;;;;;;;-149.19;100.00;62501.34;5048968;28;1384;-73
2022/01/17 09:09:53;;;;;;;;;;;;;;;-149.19;100.00;62501.34;5052510;28;1118;-73
2022/01/17 09:12:21;;;;;;;;;;;;;;;-149.19;100.00;62501.34;5024822;28;1330;-79
2022/01/17 09:14:47;;;;;;;;;;;;;;;-149.19;100.00;62501.34;5068386;28;1062;-76
2022/01/17 09:17:13;;;;;;;;;;;;;;;-149.19;100.00;62501.34;5058234;28;1137;-75
2022/01/17 09:19:40;;;;;;;;;;;;;;;-149.19;100.00;62501.34;5067672;28;982;-80
2022/01/17 09:22:12;;;;;;;;;;;;;;;-149.19;100.00;62501.34;5062654;28;1352;-76
2022/01/17 09:24:39;;;;;;;;;;;;;;;-149.19;100.00;62501.34;5025815;28;1495;-76
2022/01/17 09:27:30;;;;;;;;;;;;;;;-149.19;100.00;62501.34;5050932;28;1903;-76
2022/01/17 09:29:57;;;;;;;;;;;;;;;-149.19;100.00;62501.34;5049812;28;1263;-73
2022/01/17 09:32:23;;;;;;;;;;;;;;;-149.19;100.00;62501.34;5013061;28;1408;-75
2022/01/17 09:34:51;;;;;;;;;;;;;;;-149.19;100.00;62501.34;5027519;28;1022;-74
2022/01/17 09:37:18;;;;;;;;;;;;;;;-149.19;100.00;62501.34;5044929;28;1276;-75
2022/01/17 09:39:44;;;;;;;;;;;;;;;-149.19;100.00;62501.34;5037385;28;1494;-74
2022/01/17 09:42:11;;;;;;;;;;;;;;;-149.19;100.00;62501.34;5047674;28;1320;-75
2022/01/17 09:44:39;;;;;;;;;;;;;;;-149.19;100.00;62501.34;5050097;28;997;-75
2022/01/17 09:47:07;;;;;;;;;;;;;;;-149.19;100.00;62501.34;5049476;28;1987;-77
2022/01/17 09:49:37;;;;;;;;;;;;;;;-149.19;100.00;62501.34;5043316;28;1585;-74
2022/01/17 09:52:13;;;;;;;;;;;;;;;-149.19;100.00;62501.34;5048135;28;1314;-72
2022/01/17 09:54:41;;;;;;;;;;;;;;;-149.19;100.00;62501.34;5015462;28;1220;-75
2022/01/17 09:57:08;;;;;;;;;;;;;;;-149.19;100.00;62501.34;5043498;28;1680;-75
2022/01/17 09:59:36;;;;;;;;;;;;;;;-149.19;100.00;62501.34;5032689;28;1113;-76
2022/01/17 10:02:04;;;;;;;;;;;;;;;-149.19;100.00;62501.34;5050282;28;1305;-72
2022/01/17 10:04:30;;;;;;;;;;;;;;;-149.19;100.00;62501.34;5028296;28;1340;-74
2022/01/17 10:06:58;;;;;;;;;;;;;;;-149.19;100.00;62501.34;5041984;28;1965;-77
2022/01/17 10:09:25;;;;;;;;;;;;;;;-149.19;100.00;62501.34;5038712;28;1514;-74
2022/01/17 10:12:03;;;;;;;;;;;;;;;-149.19;100.00;62501.34;5050178;28;1308;-75
2022/01/17 10:14:31;;;;;;;;;;;;;;;-149.19;100.00;62501.34;5015885;28;1352;-73
2022/01/17 10:16:58;;;;;;;;;;;;;;;-149.19;100.00;62501.34;5033980;28;1506;-76
2022/01/17 10:19:26;;;;;;;;;;;;;;;-149.19;100.00;62501.34;5048421;28;1305;-75
2022/01/17 10:21:56;;;;;;;;;;;;;;;-149.19;100.00;62501.34;5046657;28;1553;-72
2022/01/17 10:24:24;;;;;;;;;;;;;;;-149.19;100.00;62501.34;5010460;28;1567;-75
2022/01/17 10:27:09;;;;;;;;;;;;;;;-149.19;100.00;62501.34;5047051;28;2005;-76
2022/01/17 10:35:18;;;;;;;;;;;;;;;-149.19;100.00;62501.34;5009448;28;1245;-72
2022/01/17 10:37:58;;;;;;;;;;;;;;;31.00;nan;101015.09;5044361;28;899;-71
2022/01/17 10:40:25;;;;;;;;;;;;;;;27.77;nan;101037.81;5039432;28;1288;-70
2022/01/17 10:42:52;;;;;;;;;;;;;;;27.87;nan;101047.38;5067068;23;3751;-74
2022/01/17 10:45:20;;;;;;;;;;;;;;;28.06;nan;101064.09;5065165;28;1988;-74
2022/01/17 10:47:48;;;;;;;;;;;;;;;29.41;nan;101074.22;5060403;28;1490;-72
2022/01/17 10:50:16;;;;;;;;;;;;;;;28.99;nan;101081.53;5052188;28;2176;-73
2022/01/17 10:52:46;;;;;;;;;;;;;;;28.62;nan;101075.19;5062857;28;1580;-72
2022/01/17 10:55:14;;;;;;;;;;;;;;;28.05;nan;101093.94;5053374;28;1526;-74
2022/01/17 10:57:42;;;;;;;;;;;;;;;29.12;nan;101102.00;5049984;28;1440;-70
2022/01/17 11:00:10;;;;;;;;;;;;;;;28.56;nan;101099.34;5069770;28;1025;-71
2022/01/17 11:02:37;;;;;;;;;;;;;;;27.85;nan;101085.78;5060625;28;1517;-70
2022/01/17 11:05:04;;;;;;;;;;;;;;;29.29;nan;101077.00;5065874;28;1485;-70
2022/01/17 11:07:30;;;;;;;;;;;;;;;29.04;nan;101081.66;5060033;28;2000;-72
2022/01/17 11:10:01;;;;;;;;;;;;;;;28.66;nan;101102.44;5053859;28;963;-72
2022/01/17 11:12:29;;;;;;;;;;;;;;;27.19;nan;101107.59;5053729;28;1396;-71
2022/01/17 11:14:57;;;;;;;;;;;;;;;27.22;nan;101112.69;5037187;28;1526;-72
2022/01/17 11:17:26;;;;;;;;;;;;;;;27.34;nan;101134.25;5053863;28;1112;-70
2022/01/17 11:20:07;;;;;;;;;;;;;;;26.72;nan;101138.53;5068599;28;1014;-72
2022/01/17 11:22:34;;;;;;;;;;;;;;;26.26;nan;101142.34;5073406;28;1340;-72
2022/01/17 11:25:03;;;;;;;;;;;;;;;27.52;nan;101120.41;5025073;28;1515;-72
2022/01/17 11:27:29;;;;;;;;;;;;;;;26.79;nan;101132.94;5053642;28;1921;-72
2022/01/17 11:29:57;;;;;;;;;;;;;;;26.34;nan;101130.09;5056508;28;1486;-74
2022/01/17 11:32:23;;;;;;;;;;;;;;;26.65;nan;101145.16;5061111;28;1281;-73
2022/01/17 11:34:50;;;;;;;;;;;;;;;27.70;nan;101153.06;5072471;28;1046;-73
2022/01/17 11:37:18;;;;;;;;;;;;;;;26.93;nan;101166.28;5068249;28;1322;-70
2022/01/17 11:39:45;;;;;;;;;;;;;;;26.15;nan;101160.56;5051377;28;1316;-75
2022/01/17 11:42:26;;;;;;;;;;;;;;;26.76;nan;101160.34;5052032;28;1324;-72
2022/01/17 11:44:54;;;;;;;;;;;;;;;26.32;nan;101160.06;5051804;28;1002;-71
2022/01/17 11:47:35;;;;;;;;;;;;;;;26.17;nan;101155.59;5052416;28;1926;-73
2022/01/17 11:50:16;;;;;;;;;;;;;;;26.93;nan;101141.19;5051876;28;1460;-72
2022/01/17 11:52:43;;;;;;;;;;;;;;;26.92;nan;101157.03;5052175;28;1373;-75
2022/01/17 11:55:09;;;;;;;;;;;;;;;27.41;nan;101151.81;5052812;28;959;-73
2022/01/17 11:57:35;;;;;;;;;;;;;;;24.91;nan;101151.72;5052118;28;911;-71
2022/01/17 12:00:06;;;;;;;;;;;;;;;24.48;nan;101151.94;5067890;28;1467;-70
2022/01/17 12:02:38;;;;;;;;;;;;;;;27.78;nan;101151.06;5057059;28;1586;-70
2022/01/17 12:05:23;;;;;;;;;;;;;;;27.83;nan;101148.44;5065575;28;1636;-72
2022/01/17 12:07:51;;;;;;;;;;;;;;;28.41;nan;101161.16;5068695;28;1910;-71
2022/01/17 12:10:19;;;;;;;;;;;;;;;28.78;nan;101166.72;5073542;28;1065;-72
2022/01/17 12:13:06;;;;;;;;;;;;;;;28.23;nan;101175.94;5073441;28;1397;-70
2022/01/17 12:15:54;;;;;;;;;;;;;;;29.38;nan;101176.19;5072602;28;1196;-72
2022/01/17 12:18:28;;;;;;;;;;;;;;;29.42;nan;101183.00;5040119;28;1921;-72
2022/01/17 12:20:54;;;;;;;;;;;;;;;26.79;nan;101180.25;5072853;28;978;-72
2022/01/17 12:23:24;;;;;;;;;;;;;;;26.70;nan;101176.84;5055198;28;1515;-71
2022/01/17 12:25:51;;;;;;;;;;;;;;;27.22;nan;101196.28;5058643;28;1950;-70
2022/01/17 12:28:26;;;;;;;;;;;;;;;29.34;nan;101195.41;5062117;28;1518;-70
2022/01/17 12:30:57;;;;;;;;;;;;;;;25.65;nan;101174.06;5068175;28;1371;-72
2022/01/17 12:33:30;;;;;;;;;;;;;;;27.60;nan;101193.69;5072575;28;1284;-71
2022/01/17 12:35:57;;;;;;;;;;;;;;;28.30;nan;101201.00;5056658;28;1513;-70
2022/01/17 12:38:30;;;;;;;;;;;;;;;28.05;nan;101191.59;5069901;28;1402;-70
2022/01/17 12:40:57;;;;;;;;;;;;;;;25.67;nan;101195.00;5034295;28;1187;-71
2022/01/17 12:43:27;;;;;;;;;;;;;;;27.51;nan;101193.97;5053273;28;1368;-70
2022/01/17 12:45:59;;;;;;;;;;;;;;;29.53;nan;101212.06;5052114;28;1973;-71
2022/01/17 12:48:26;;;;;;;;;;;;;;;30.33;nan;101212.63;5054159;28;1534;-72
2022/01/17 12:50:53;;;;;;;;;;;;;;;29.31;nan;101209.00;5056614;28;1561;-72
2022/01/17 12:53:21;;;;;;;;;;;;;;;24.92;nan;101194.22;5044934;28;1510;-74
2022/01/17 12:55:48;;;;;;;;;;;;;;;27.29;nan;101192.63;5040866;28;1535;-71
2022/01/17 12:58:16;;;;;;;;;;;;;;;26.38;nan;101193.44;5074105;28;1588;-72
2022/01/17 13:00:44;;;;;;;;;;;;;;;27.42;nan;101212.06;5073256;28;1564;-71
2022/01/17 13:03:12;;;;;;;;;;;;;;;28.13;nan;101218.34;5073418;28;1518;-72
2022/01/17 13:05:39;;;;;;;;;;;;;;;25.62;nan;101207.84;5073447;28;1022;-70